Time;durP1;ratioP1;P1;durP2;ratioP2;P2;SDS_P1;SDS_P2;PMS_P1;PMS_P2;Temp;Humidity;BMP_temperature;BMP_pressure;BME280_temperature;BME280_humidity;BME280_pressure;Samples;Min_cycle;Max_cycle;Signal;HPM_P1;HPM_P2
2023/06/21 00:01:34;;;;;;;7.13;3.90;;;20.80;99.90;;;;;;5035087;28;20461;-73
2023/06/21 00:04:04;;;;;;;8.30;3.97;;;20.80;99.90;;;;;;5035151;28;20434;-73
2023/06/21 00:06:34;;;;;;;9.00;4.43;;;20.70;99.90;;;;;;5035146;28;20533;-73
2023/06/21 00:13:16;;;;;;;6.80;4.17;;;20.60;99.90;;;;;;5039262;28;20386;-74
2023/06/21 00:15:44;;;;;;;5.87;4.50;;;20.60;99.90;;;;;;5039080;28;20462;-74
2023/06/21 00:18:13;;;;;;;6.07;4.43;;;20.50;99.90;;;;;;5037589;28;20451;-74
2023/06/21 00:20:42;;;;;;;6.10;4.70;;;20.50;99.90;;;;;;5039058;28;20443;-74
2023/06/21 00:23:11;;;;;;;8.80;4.60;;;20.40;99.90;;;;;;5039050;28;20510;-74
2023/06/21 00:25:39;;;;;;;7.20;5.50;;;20.40;99.90;;;;;;5039352;28;20443;-74
2023/06/21 00:28:07;;;;;;;6.40;4.87;;;20.40;99.90;;;;;;5037651;28;20475;-73
2023/06/21 00:30:35;;;;;;;7.40;5.40;;;20.40;99.90;;;;;;5037273;28;20513;-73
2023/06/21 00:33:04;;;;;;;6.93;5.20;;;20.40;99.90;;;;;;5036863;28;20806;-73
2023/06/21 00:35:34;;;;;;;8.30;5.20;;;20.40;99.90;;;;;;5036483;28;20445;-73
2023/06/21 00:38:05;;;;;;;7.00;5.30;;;20.30;99.90;;;;;;5036288;28;20817;-75
2023/06/21 00:40:34;;;;;;;8.77;5.47;;;20.30;99.90;;;;;;5037346;28;20424;-74
2023/06/21 00:43:04;;;;;;;7.30;5.80;;;20.30;99.90;;;;;;5039174;28;20451;-73
2023/06/21 00:45:40;;;;;;;8.73;6.80;;;20.30;99.90;;;;;;5041359;28;20993;-73
2023/06/21 00:48:08;;;;;;;8.33;6.57;;;20.30;99.90;;;;;;5040744;28;20477;-73
2023/06/21 00:50:38;;;;;;;9.23;6.87;;;20.30;99.90;;;;;;5040901;28;20882;-73
2023/06/21 00:53:08;;;;;;;8.27;6.47;;;20.30;99.90;;;;;;5039386;28;20470;-73
2023/06/21 00:55:36;;;;;;;8.77;7.87;;;20.30;99.90;;;;;;5040964;28;20435;-73
2023/06/21 00:58:05;;;;;;;9.87;8.87;;;20.30;99.90;;;;;;5039288;28;20466;-74
2023/06/21 01:00:35;;;;;;;10.70;9.70;;;20.30;99.90;;;;;;5039082;28;20457;-73
2023/06/21 01:03:03;;;;;;;12.20;10.30;;;20.20;99.90;;;;;;5038872;28;20439;-74
2023/06/21 01:05:34;;;;;;;12.53;11.23;;;20.20;99.90;;;;;;5038007;28;21051;-75
2023/06/21 01:08:12;;;;;;;12.13;11.00;;;20.20;99.90;;;;;;5038827;28;20478;-74
2023/06/21 01:10:56;;;;;;;13.57;12.27;;;20.20;99.90;;;;;;5036929;28;20435;-74
2023/06/21 01:13:39;;;;;;;13.73;12.40;;;20.10;99.90;;;;;;5043577;28;20466;-74
2023/06/21 01:16:14;;;;;;;13.47;12.13;;;20.10;99.90;;;;;;5042067;28;20477;-74
2023/06/21 01:18:45;;;;;;;17.07;15.57;;;20.10;99.90;;;;;;5038903;28;21054;-75
2023/06/21 01:21:18;;;;;;;17.30;15.60;;;20.10;99.90;;;;;;5041296;28;20423;-75
2023/06/21 01:24:03;;;;;;;18.47;16.83;;;20.10;99.90;;;;;;5042951;28;20451;-75
2023/06/21 01:26:59;;;;;;;17.67;16.20;;;20.10;99.90;;;;;;5041978;28;20519;-75
2023/06/21 01:29:31;;;;;;;19.57;17.57;;;20.10;99.90;;;;;;5040983;28;20521;-74
2023/06/21 01:32:00;;;;;;;20.37;18.57;;;20.10;99.90;;;;;;5039749;28;20426;-74
2023/06/21 01:34:30;;;;;;;19.33;17.57;;;20.10;99.90;;;;;;5038399;28;20443;-74
2023/06/21 01:36:59;;;;;;;20.43;18.63;;;20.10;99.90;;;;;;5039947;28;20443;-74
2023/06/21 01:39:28;;;;;;;21.03;18.90;;;20.10;99.90;;;;;;5038426;28;20561;-74
2023/06/21 01:41:58;;;;;;;21.33;19.33;;;20.10;99.90;;;;;;5038290;28;20545;-74
2023/06/21 01:44:28;;;;;;;19.93;18.03;;;20.10;99.90;;;;;;5038410;28;20443;-73
2023/06/21 01:46:58;;;;;;;22.00;19.90;;;20.10;99.90;;;;;;5037246;28;20447;-73
2023/06/21 01:49:28;;;;;;;21.40;19.40;;;20.10;99.90;;;;;;5036988;28;20983;-75
2023/06/21 01:51:57;;;;;;;21.70;19.80;;;20.10;99.90;;;;;;5035421;28;20454;-75
2023/06/21 01:54:26;;;;;;;22.03;20.10;;;20.10;99.90;;;;;;5034552;28;20442;-75
2023/06/21 01:57:00;;;;;;;22.23;20.13;;;20.10;99.90;;;;;;5036211;28;20485;-75
2023/06/21 01:59:31;;;;;;;24.95;22.85;;;20.10;99.90;;;;;;5036529;28;20954;-74
2023/06/21 02:02:03;;;;;;;24.67;22.67;;;20.10;99.90;;;;;;5038092;28;20242;-73
2023/06/21 02:04:33;;;;;;;26.83;24.27;;;20.10;99.90;;;;;;5036699;28;20439;-73
2023/06/21 02:07:03;;;;;;;26.60;24.27;;;20.10;99.90;;;;;;5036678;28;20439;-73
2023/06/21 02:09:32;;;;;;;27.77;25.27;;;20.10;99.90;;;;;;5036292;28;20501;-73
2023/06/21 02:12:01;;;;;;;29.00;26.47;;;20.20;99.90;;;;;;5038656;28;20466;-73
2023/06/21 02:14:31;;;;;;;28.37;25.83;;;20.10;99.90;;;;;;5037981;28;20847;-73
2023/06/21 02:16:59;;;;;;;28.63;26.07;;;20.20;99.90;;;;;;5036791;28;20521;-73
2023/06/21 02:19:27;;;;;;;29.50;26.80;;;20.20;99.90;;;;;;5038315;28;20455;-73
2023/06/21 02:21:56;;;;;;;32.53;29.47;;;20.20;99.90;;;;;;5038527;28;20474;-73
2023/06/21 02:24:24;;;;;;;30.97;27.97;;;20.20;99.90;;;;;;5038177;28;20472;-74
2023/06/21 02:26:53;;;;;;;32.60;29.40;;;20.20;99.90;;;;;;5039026;28;20443;-74
2023/06/21 02:29:21;;;;;;;35.17;31.87;;;20.20;99.90;;;;;;5038500;28;20482;-74
2023/06/21 02:31:50;;;;;;;34.03;31.13;;;20.20;99.90;;;;;;5038461;28;20435;-74
2023/06/21 02:34:19;;;;;;;34.37;31.37;;;20.20;99.90;;;;;;5038903;28;20483;-74
2023/06/21 02:36:53;;;;;;;33.73;30.83;;;20.20;99.90;;;;;;5038429;28;20944;-73
2023/06/21 02:39:22;;;;;;;36.33;32.90;;;20.20;99.90;;;;;;5039126;28;20461;-73
2023/06/21 02:41:51;;;;;;;33.90;30.80;;;20.20;99.90;;;;;;5038932;28;20443;-73
2023/06/21 02:44:23;;;;;;;34.60;31.50;;;20.20;99.90;;;;;;5037422;28;20970;-73
2023/06/21 02:46:56;;;;;;;37.57;34.07;;;20.30;99.90;;;;;;5037828;28;20450;-73
2023/06/21 02:49:24;;;;;;;38.23;34.43;;;20.30;99.90;;;;;;5037254;28;20550;-73
2023/06/21 02:51:53;;;;;;;39.37;35.67;;;20.30;99.90;;;;;;5038228;28;20461;-73
2023/06/21 02:54:22;;;;;;;38.37;34.77;;;20.30;99.90;;;;;;5038497;28;20447;-74
2023/06/21 02:56:50;;;;;;;38.97;35.40;;;20.30;99.90;;;;;;5038391;28;20528;-73
2023/06/21 02:59:19;;;;;;;41.40;37.60;;;20.30;99.90;;;;;;5035770;28;20999;-73
2023/06/21 03:01:47;;;;;;;41.17;37.47;;;20.30;99.90;;;;;;5035390;28;20442;-74
2023/06/21 03:04:18;;;;;;;40.77;37.13;;;20.30;99.90;;;;;;5036190;28;20439;-74
2023/06/21 03:06:47;;;;;;;41.27;37.60;;;20.30;99.90;;;;;;5035457;28;20443;-73
2023/06/21 03:09:15;;;;;;;40.67;37.00;;;20.30;99.90;;;;;;5036559;28;20845;-73
2023/06/21 03:11:44;;;;;;;39.37;35.93;;;20.30;99.90;;;;;;5035236;28;21018;-74
2023/06/21 03:14:13;;;;;;;40.40;36.60;;;20.30;99.90;;;;;;5035858;28;20487;-73
2023/06/21 03:16:44;;;;;;;41.43;37.63;;;20.30;99.90;;;;;;5035537;28;20982;-74
2023/06/21 03:19:13;;;;;;;40.93;37.20;;;20.30;99.90;;;;;;5036381;28;20470;-74
2023/06/21 03:21:43;;;;;;;40.27;36.63;;;20.30;99.90;;;;;;5037650;28;20467;-74
2023/06/21 03:24:12;;;;;;;39.90;36.23;;;20.30;99.90;;;;;;5037232;28;20454;-74
2023/06/21 03:26:41;;;;;;;39.87;36.27;;;20.30;99.90;;;;;;5036427;28;20972;-74
2023/06/21 03:29:10;;;;;;;40.40;36.60;;;20.30;99.90;;;;;;5037683;28;20479;-74
2023/06/21 03:31:40;;;;;;;40.30;36.67;;;20.30;99.90;;;;;;5037062;28;20937;-73
2023/06/21 03:34:09;;;;;;;41.90;37.87;;;20.30;99.90;;;;;;5037358;28;20455;-74
2023/06/21 03:36:37;;;;;;;39.93;36.40;;;20.30;99.90;;;;;;5035627;28;20443;-74
2023/06/21 03:39:08;;;;;;;36.67;33.37;;;20.30;99.90;;;;;;5035392;28;20502;-74
2023/06/21 03:41:37;;;;;;;39.07;35.47;;;20.30;99.90;;;;;;5035447;28;20435;-74
2023/06/21 03:44:06;;;;;;;37.63;34.40;;;20.30;99.90;;;;;;5036076;28;20443;-74
2023/06/21 03:46:34;;;;;;;39.13;35.60;;;20.20;99.90;;;;;;5036020;28;20470;-73
2023/06/21 03:49:04;;;;;;;38.43;34.83;;;20.20;99.90;;;;;;5036263;28;20553;-73
2023/06/21 03:51:32;;;;;;;37.83;34.43;;;20.20;99.90;;;;;;5036416;28;20458;-73
2023/06/21 03:54:02;;;;;;;36.97;33.67;;;20.20;99.90;;;;;;5037371;28;20466;-74
2023/06/21 03:56:32;;;;;;;35.43;32.43;;;20.20;99.90;;;;;;5038084;28;20526;-74
2023/06/21 03:59:01;;;;;;;36.20;32.80;;;20.20;99.90;;;;;;5035090;28;20528;-74
2023/06/21 04:01:29;;;;;;;33.87;30.77;;;20.20;99.90;;;;;;5034574;28;20990;-73
2023/06/21 04:03:57;;;;;;;33.57;30.67;;;20.20;99.90;;;;;;5033206;28;20952;-74
2023/06/21 04:06:26;;;;;;;31.90;29.10;;;20.20;99.90;;;;;;5033354;28;20446;-73
2023/06/21 04:08:54;;;;;;;31.90;28.90;;;20.20;99.90;;;;;;5032913;28;20471;-73
2023/06/21 04:11:25;;;;;;;31.60;28.83;;;20.20;99.90;;;;;;5033310;28;20522;-73
2023/06/21 04:13:55;;;;;;;32.47;29.47;;;20.10;99.90;;;;;;5034864;28;20439;-73
2023/06/21 04:16:26;;;;;;;32.70;29.60;;;20.10;99.90;;;;;;5037355;28;20942;-74
2023/06/21 04:18:55;;;;;;;33.10;30.00;;;20.10;99.90;;;;;;5041548;28;20971;-74
2023/06/21 04:21:24;;;;;;;31.10;28.20;;;20.10;99.90;;;;;;5040444;28;20944;-74
2023/06/21 04:23:52;;;;;;;31.77;28.97;;;20.10;99.90;;;;;;5042370;28;20481;-74
2023/06/21 04:26:22;;;;;;;33.10;30.10;;;20.10;99.90;;;;;;5042221;28;20439;-73
2023/06/21 04:28:51;;;;;;;34.50;31.30;;;20.10;99.90;;;;;;5041743;28;20471;-73
2023/06/21 04:31:20;;;;;;;33.43;30.23;;;20.10;99.90;;;;;;5040908;28;20431;-74
2023/06/21 04:33:51;;;;;;;33.30;30.40;;;20.10;99.90;;;;;;5042271;28;20489;-73
2023/06/21 04:36:19;;;;;;;33.53;30.43;;;20.10;99.90;;;;;;5044100;28;20521;-74
2023/06/21 04:38:48;;;;;;;34.07;30.97;;;20.10;99.90;;;;;;5042900;28;20467;-74
2023/06/21 04:41:17;;;;;;;34.53;31.43;;;20.10;99.90;;;;;;5042783;28;20525;-73
2023/06/21 04:43:45;;;;;;;36.50;33.10;;;20.10;99.90;;;;;;5042401;28;20435;-73
2023/06/21 04:46:13;;;;;;;36.20;32.77;;;20.10;99.90;;;;;;5042878;28;20446;-73
2023/06/21 04:48:44;;;;;;;37.77;34.30;;;20.20;99.90;;;;;;5042971;28;20459;-73
2023/06/21 04:51:15;;;;;;;39.63;36.00;;;20.20;99.90;;;;;;5043194;28;20446;-73
2023/06/21 04:53:44;;;;;;;43.07;39.07;;;20.10;99.90;;;;;;5043809;28;20429;-74
2023/06/21 04:56:13;;;;;;;44.47;40.20;;;20.20;99.90;;;;;;5043628;28;20431;-74
2023/06/21 04:58:41;;;;;;;42.23;38.50;;;20.20;99.90;;;;;;5042058;28;20532;-74
2023/06/21 05:01:10;;;;;;;47.13;43.03;;;20.20;99.90;;;;;;5042840;28;20442;-74
2023/06/21 05:03:38;;;;;;;50.30;45.60;;;20.20;99.90;;;;;;5042593;28;20529;-73
2023/06/21 05:06:08;;;;;;;51.43;46.50;;;20.20;99.90;;;;;;5041975;28;20438;-74
2023/06/21 05:08:36;;;;;;;49.30;44.60;;;20.20;99.90;;;;;;5040424;28;20535;-73
2023/06/21 05:11:04;;;;;;;47.50;42.83;;;20.20;99.90;;;;;;5039799;28;20881;-72
2023/06/21 05:13:32;;;;;;;51.30;46.33;;;20.20;99.90;;;;;;5039891;28;20529;-72
2023/06/21 05:16:00;;;;;;;51.27;46.43;;;20.20;99.90;;;;;;5040310;28;20530;-72
2023/06/21 05:18:28;;;;;;;49.70;45.10;;;20.20;99.90;;;;;;5039981;28;20458;-71
2023/06/21 05:20:56;;;;;;;53.20;48.40;;;20.30;99.90;;;;;;5040707;28;20427;-73
2023/06/21 05:23:26;;;;;;;50.63;45.87;;;20.30;99.90;;;;;;5040336;28;20439;-73
2023/06/21 05:25:54;;;;;;;49.27;44.47;;;20.30;99.90;;;;;;5040676;28;20778;-73
2023/06/21 05:28:22;;;;;;;53.87;48.83;;;20.30;99.90;;;;;;5037071;28;20557;-74
2023/06/21 05:30:50;;;;;;;50.83;46.13;;;20.40;99.90;;;;;;5037315;28;20518;-73
2023/06/21 05:33:18;;;;;;;52.93;48.03;;;20.40;99.90;;;;;;5036187;28;20447;-74
2023/06/21 05:35:47;;;;;;;53.40;47.80;;;20.40;99.90;;;;;;5037656;28;20474;-74
2023/06/21 05:38:15;;;;;;;52.83;47.70;;;20.50;99.90;;;;;;5036287;28;20541;-72
2023/06/21 05:40:44;;;;;;;52.10;46.80;;;20.50;99.90;;;;;;5036343;28;20882;-72
2023/06/21 05:43:12;;;;;;;55.50;50.20;;;20.60;99.90;;;;;;5035395;28;20862;-72
2023/06/21 05:45:41;;;;;;;53.77;48.50;;;20.60;99.90;;;;;;5035934;28;20446;-73
2023/06/21 05:48:09;;;;;;;55.90;50.40;;;20.70;99.90;;;;;;5036137;28;20809;-73
2023/06/21 05:50:37;;;;;;;56.70;51.10;;;20.70;99.90;;;;;;5036135;28;20471;-72
2023/06/21 05:53:05;;;;;;;57.20;51.50;;;20.70;99.90;;;;;;5036153;28;20431;-72
2023/06/21 05:55:33;;;;;;;53.70;48.60;;;20.70;99.90;;;;;;5036267;28;20478;-71
2023/06/21 05:58:03;;;;;;;54.77;49.43;;;20.70;99.90;;;;;;5035965;28;21006;-71
2023/06/21 06:00:31;;;;;;;53.97;48.67;;;20.70;99.90;;;;;;5035597;28;21014;-71
2023/06/21 06:03:01;;;;;;;53.50;48.30;;;20.70;99.90;;;;;;5035609;28;20470;-71
2023/06/21 06:05:30;;;;;;;55.67;50.27;;;20.70;99.90;;;;;;5035508;28;20431;-71
2023/06/21 06:07:58;;;;;;;55.67;50.20;;;20.90;99.90;;;;;;5035449;28;20490;-71
2023/06/21 06:10:27;;;;;;;52.73;47.47;;;21.00;99.90;;;;;;5035342;28;20516;-70
2023/06/21 06:12:56;;;;;;;54.10;48.90;;;21.10;99.90;;;;;;5035382;28;20940;-70
2023/06/21 06:15:25;;;;;;;52.07;46.97;;;21.30;99.90;;;;;;5035848;28;20473;-71
2023/06/21 06:17:53;;;;;;;52.87;47.80;;;21.40;99.90;;;;;;5035087;28;20453;-71
2023/06/21 06:20:22;;;;;;;51.27;46.27;;;21.50;99.90;;;;;;5035205;28;20527;-71
2023/06/21 06:22:50;;;;;;;52.27;47.03;;;21.60;99.90;;;;;;5036587;28;20500;-74
2023/06/21 06:25:19;;;;;;;51.57;46.77;;;21.70;99.90;;;;;;5038154;28;20459;-74
2023/06/21 06:27:47;;;;;;;48.73;43.90;;;21.80;99.90;;;;;;5038732;28;20896;-74
2023/06/21 06:30:16;;;;;;;48.40;43.90;;;21.90;99.90;;;;;;5038066;28;20478;-74
2023/06/21 06:32:45;;;;;;;47.20;42.87;;;22.00;99.90;;;;;;5038770;28;20514;-74
2023/06/21 06:35:13;;;;;;;44.50;40.37;;;22.10;99.90;;;;;;5038262;28;20442;-74
2023/06/21 06:37:41;;;;;;;45.80;41.70;;;22.20;99.90;;;;;;5038492;28;20458;-74
2023/06/21 06:40:10;;;;;;;42.50;38.70;;;22.30;99.90;;;;;;5037962;28;20481;-74
2023/06/21 06:42:39;;;;;;;41.60;37.90;;;22.40;99.90;;;;;;5037953;28;20496;-75
2023/06/21 06:45:08;;;;;;;40.77;37.00;;;22.50;99.90;;;;;;5038229;28;20474;-74
2023/06/21 06:47:36;;;;;;;41.83;38.10;;;22.50;99.90;;;;;;5038744;28;20553;-75
2023/06/21 06:50:07;;;;;;;43.37;39.30;;;22.60;99.90;;;;;;5036721;28;20466;-74
2023/06/21 06:52:35;;;;;;;41.07;37.17;;;22.70;99.90;;;;;;5036199;28;20446;-74
2023/06/21 06:55:04;;;;;;;41.57;37.60;;;22.70;99.90;;;;;;5035834;28;20526;-73
2023/06/21 06:57:32;;;;;;;40.10;36.37;;;22.60;99.90;;;;;;5034928;28;20944;-74
2023/06/21 07:00:11;;;;;;;37.90;34.37;;;22.50;99.90;;;;;;5035884;28;20411;-74
2023/06/21 07:02:39;;;;;;;37.73;34.30;;;22.50;99.90;;;;;;5035319;28;20449;-75
2023/06/21 07:05:09;;;;;;;36.30;33.13;;;22.60;99.90;;;;;;5035220;28;20956;-75
2023/06/21 07:07:38;;;;;;;34.20;31.10;;;22.60;99.90;;;;;;5035217;28;20493;-75
2023/06/21 07:10:07;;;;;;;34.33;31.23;;;22.60;99.90;;;;;;5035167;28;20972;-75
2023/06/21 07:12:35;;;;;;;32.23;29.37;;;22.50;99.90;;;;;;5035060;28;20871;-76
2023/06/21 07:15:03;;;;;;;33.97;30.97;;;22.50;99.90;;;;;;5033481;28;20534;-75
2023/06/21 07:17:32;;;;;;;34.90;31.80;;;22.40;99.90;;;;;;5033697;28;20451;-75
2023/06/21 07:20:00;;;;;;;33.20;30.10;;;22.40;99.90;;;;;;5033989;28;20509;-75
2023/06/21 07:22:29;;;;;;;29.50;26.70;;;22.40;99.90;;;;;;5035628;28;20438;-74
2023/06/21 07:24:58;;;;;;;30.73;28.00;;;22.40;99.90;;;;;;5033203;28;20454;-75
2023/06/21 07:27:27;;;;;;;31.30;28.70;;;22.50;99.90;;;;;;5033119;28;20529;-75
2023/06/21 07:29:56;;;;;;;29.67;26.87;;;22.50;99.90;;;;;;5040405;28;20545;-78
2023/06/21 07:32:24;;;;;;;29.47;26.80;;;22.60;99.90;;;;;;5035734;28;20443;-77
2023/06/21 07:34:59;;;;;;;31.03;28.20;;;22.70;99.90;;;;;;5034744;28;20423;-74
2023/06/21 07:37:29;;;;;;;27.30;24.80;;;22.80;99.90;;;;;;5033225;28;20451;-76
2023/06/21 07:39:57;;;;;;;29.73;27.13;;;22.90;99.90;;;;;;5034891;28;20864;-74
2023/06/21 07:42:26;;;;;;;27.13;24.50;;;23.00;99.90;;;;;;5034180;28;20442;-75
2023/06/21 07:44:55;;;;;;;26.30;23.63;;;23.10;99.90;;;;;;5034685;28;20469;-75
2023/06/21 07:47:23;;;;;;;24.53;22.03;;;23.20;99.90;;;;;;5033865;28;20434;-74
2023/06/21 07:49:52;;;;;;;24.87;22.67;;;23.20;99.90;;;;;;5034542;28;20441;-74
2023/06/21 07:52:20;;;;;;;24.00;21.80;;;23.30;99.90;;;;;;5034011;28;20470;-74
2023/06/21 07:54:50;;;;;;;21.73;19.53;;;23.40;99.90;;;;;;5034005;28;20538;-74
2023/06/21 07:57:18;;;;;;;22.80;20.80;;;23.30;99.90;;;;;;5033886;28;20529;-73
2023/06/21 07:59:47;;;;;;;24.93;22.73;;;23.30;99.90;;;;;;5032619;28;20819;-74
2023/06/21 08:02:17;;;;;;;21.70;19.70;;;23.20;99.90;;;;;;5034563;28;21005;-75
2023/06/21 08:04:46;;;;;;;23.40;21.13;;;23.20;99.90;;;;;;5034331;28;20481;-74
2023/06/21 08:07:15;;;;;;;21.97;19.97;;;23.20;99.90;;;;;;5034119;28;20474;-74
2023/06/21 08:09:43;;;;;;;21.93;19.93;;;23.20;99.90;;;;;;5034993;28;20481;-75
2023/06/21 08:12:13;;;;;;;24.73;22.43;;;23.20;99.90;;;;;;5033714;28;20467;-75
2023/06/21 08:14:42;;;;;;;23.70;21.50;;;23.30;99.90;;;;;;5034205;28;20423;-75
2023/06/21 08:17:10;;;;;;;24.00;21.50;;;23.40;99.90;;;;;;5034204;28;20477;-75
2023/06/21 08:19:38;;;;;;;24.03;21.87;;;23.50;99.90;;;;;;5033001;28;20447;-75
2023/06/21 08:22:07;;;;;;;24.77;22.37;;;23.60;99.90;;;;;;5034701;28;20493;-73
2023/06/21 08:24:35;;;;;;;23.80;21.50;;;23.70;99.90;;;;;;5034817;28;20442;-74
2023/06/21 08:27:04;;;;;;;24.87;22.53;;;23.80;99.90;;;;;;5035678;28;20454;-74
2023/06/21 08:29:34;;;;;;;24.70;22.63;;;23.90;99.90;;;;;;5034557;28;20848;-73
2023/06/21 08:32:03;;;;;;;23.50;21.20;;;24.00;99.90;;;;;;5035354;28;20498;-73
2023/06/21 08:34:32;;;;;;;26.67;24.13;;;24.00;99.90;;;;;;5034874;28;20434;-73
2023/06/21 08:37:00;;;;;;;23.90;21.53;;;24.00;99.90;;;;;;5036381;28;20438;-73
2023/06/21 08:39:28;;;;;;;25.60;23.13;;;24.00;99.90;;;;;;5035689;28;20459;-74
2023/06/21 08:42:00;;;;;;;22.83;20.63;;;23.90;99.90;;;;;;5035819;28;20451;-73
2023/06/21 08:44:28;;;;;;;24.07;21.50;;;23.90;99.90;;;;;;5035236;28;20435;-73
2023/06/21 08:47:00;;;;;;;22.07;19.87;;;23.80;99.90;;;;;;5036033;28;20439;-73
2023/06/21 08:49:33;;;;;;;24.47;22.03;;;23.80;99.90;;;;;;5036541;28;20459;-73
2023/06/21 08:52:08;;;;;;;21.00;19.13;;;23.70;99.90;;;;;;5035436;28;20455;-73
2023/06/21 08:54:39;;;;;;;20.40;18.50;;;23.80;99.90;;;;;;5036507;28;20418;-73
2023/06/21 08:57:15;;;;;;;16.70;15.20;;;23.80;99.90;;;;;;5034021;28;20443;-74
2023/06/21 08:59:49;;;;;;;19.97;18.27;;;23.80;99.90;;;;;;5034211;28;20454;-75
2023/06/21 09:02:27;;;;;;;19.70;17.73;;;23.80;99.90;;;;;;5036756;28;20419;-74
2023/06/21 09:05:00;;;;;;;20.30;18.40;;;23.90;99.90;;;;;;5039200;28;20419;-74
2023/06/21 09:07:30;;;;;;;18.63;16.93;;;23.80;99.90;;;;;;5039742;28;20425;-74
2023/06/21 09:10:00;;;;;;;20.23;18.30;;;23.90;99.90;;;;;;5037839;28;20442;-73
2023/06/21 09:12:31;;;;;;;19.70;17.90;;;23.90;99.90;;;;;;5039658;28;20459;-74
2023/06/21 09:14:59;;;;;;;19.63;17.83;;;24.00;99.90;;;;;;5039384;28;20423;-74
2023/06/21 09:17:29;;;;;;;19.47;17.67;;;24.00;99.90;;;;;;5038312;28;20549;-74
2023/06/21 09:19:58;;;;;;;18.47;16.87;;;24.10;99.90;;;;;;5039132;28;20430;-75
2023/06/21 09:22:27;;;;;;;17.90;16.20;;;24.20;99.90;;;;;;5038395;28;20877;-74
2023/06/21 09:24:56;;;;;;;16.83;15.33;;;24.30;99.90;;;;;;5037695;28;20435;-74
2023/06/21 09:27:24;;;;;;;19.83;17.93;;;24.40;99.90;;;;;;5041631;28;20466;-74
2023/06/21 09:29:52;;;;;;;18.57;16.77;;;24.50;99.90;;;;;;5041393;28;21232;-74
2023/06/21 09:32:20;;;;;;;16.83;15.17;;;24.50;99.90;;;;;;5038420;28;20471;-74
2023/06/21 09:34:51;;;;;;;15.37;14.00;;;24.60;99.90;;;;;;5039623;28;20510;-74
2023/06/21 09:37:32;;;;;;;16.43;14.90;;;24.70;99.90;;;;;;5038849;28;20505;-74
2023/06/21 09:40:00;;;;;;;15.90;14.43;;;24.70;99.90;;;;;;5039606;28;20439;-74
2023/06/21 09:42:29;;;;;;;18.27;16.60;;;24.80;99.90;;;;;;5037272;28;20447;-73
2023/06/21 09:44:57;;;;;;;18.00;16.23;;;24.80;99.90;;;;;;5036835;28;20450;-73
2023/06/21 09:47:30;;;;;;;16.70;15.13;;;24.70;99.90;;;;;;5038124;28;20854;-74
2023/06/21 09:50:00;;;;;;;15.63;14.23;;;24.80;99.90;;;;;;5038174;28;20891;-73
2023/06/21 09:52:29;;;;;;;15.60;14.20;;;24.80;99.90;;;;;;5036281;28;20477;-73
2023/06/21 09:54:59;;;;;;;14.50;13.20;;;24.80;99.90;;;;;;5036113;28;20458;-74
2023/06/21 09:57:31;;;;;;;15.17;13.80;;;24.80;99.90;;;;;;5036952;28;20442;-74
2023/06/21 10:00:00;;;;;;;13.10;11.90;;;24.80;99.90;;;;;;5036917;28;20439;-73
2023/06/21 10:02:28;;;;;;;14.57;13.27;;;24.90;99.90;;;;;;5038452;28;20473;-73
2023/06/21 10:04:57;;;;;;;12.87;11.67;;;24.90;99.90;;;;;;5041632;28;20538;-78
2023/06/21 10:07:26;;;;;;;13.90;12.57;;;25.00;99.90;;;;;;5039049;28;20847;-77
2023/06/21 10:09:55;;;;;;;13.60;12.27;;;25.10;99.90;;;;;;5040043;28;20471;-77
2023/06/21 10:12:23;;;;;;;13.67;12.37;;;25.10;99.90;;;;;;5037713;28;20480;-77
2023/06/21 10:14:52;;;;;;;14.30;12.93;;;25.10;99.90;;;;;;5037983;28;20442;-74
2023/06/21 10:17:20;;;;;;;13.57;12.00;;;25.20;99.90;;;;;;5039315;28;20505;-74
2023/06/21 10:19:49;;;;;;;14.40;13.10;;;25.20;99.90;;;;;;5039380;28;20439;-75
2023/06/21 10:22:20;;;;;;;13.53;11.50;;;25.30;99.90;;;;;;5038842;28;20435;-77
2023/06/21 10:24:51;;;;;;;14.83;13.43;;;25.30;99.90;;;;;;5039492;28;20419;-77
2023/06/21 10:27:20;;;;;;;16.23;14.67;;;25.40;99.90;;;;;;5037090;28;20459;-76
2023/06/21 10:29:56;;;;;;;14.70;13.37;;;25.40;99.90;;;;;;5036155;28;20446;-74
2023/06/21 10:32:25;;;;;;;14.60;13.20;;;25.50;99.90;;;;;;5036371;28;20496;-78
2023/06/21 10:34:58;;;;;;;15.17;13.80;;;25.50;99.90;;;;;;5038117;28;20960;-74
2023/06/21 10:37:32;;;;;;;14.43;12.97;;;25.50;99.90;;;;;;5037120;28;20764;-76
2023/06/21 10:40:05;;;;;;;13.77;12.37;;;25.40;99.90;;;;;;5037163;28;20415;-76
2023/06/21 10:42:39;;;;;;;12.83;11.50;;;25.40;99.90;;;;;;5034733;28;20443;-75
2023/06/21 10:45:09;;;;;;;11.73;10.53;;;25.50;99.90;;;;;;5035914;28;20518;-74
2023/06/21 10:47:38;;;;;;;12.57;11.30;;;25.60;99.90;;;;;;5036029;28;20501;-72
2023/06/21 10:50:08;;;;;;;11.60;10.50;;;25.60;99.90;;;;;;5035641;28;20445;-72
2023/06/21 10:52:37;;;;;;;13.03;11.37;;;25.60;99.90;;;;;;5035953;28;20482;-72
2023/06/21 10:55:08;;;;;;;11.67;10.60;;;25.60;99.90;;;;;;5033324;28;20453;-72
2023/06/21 10:57:36;;;;;;;12.80;11.60;;;25.70;99.90;;;;;;5034602;28;20469;-72
2023/06/21 11:00:07;;;;;;;12.40;11.17;;;25.80;99.90;;;;;;5034448;28;20439;-72
2023/06/21 11:02:36;;;;;;;12.87;11.67;;;25.90;99.90;;;;;;5033080;28;20440;-72
2023/06/21 11:05:15;;;;;;;13.50;12.20;;;26.00;99.90;;;;;;5034276;28;21014;-72
2023/06/21 11:07:51;;;;;;;13.87;12.60;;;26.10;99.90;;;;;;5034530;28;20476;-72
2023/06/21 11:10:29;;;;;;;13.00;11.70;;;26.20;99.90;;;;;;5034649;28;20419;-72
2023/06/21 11:12:58;;;;;;;11.03;9.90;;;26.20;99.90;;;;;;5034687;28;20458;-72
2023/06/21 11:15:27;;;;;;;14.00;12.50;;;26.30;99.90;;;;;;5034190;28;20437;-72
2023/06/21 11:18:02;;;;;;;13.30;12.10;;;26.30;99.90;;;;;;5034765;28;20478;-72
2023/06/21 11:20:32;;;;;;;11.80;10.70;;;26.30;99.90;;;;;;5034934;28;20422;-72
2023/06/21 11:23:07;;;;;;;10.53;9.53;;;26.30;99.90;;;;;;5032877;28;20839;-72
2023/06/21 11:25:37;;;;;;;10.20;9.20;;;26.40;99.90;;;;;;5033315;28;20441;-72
2023/06/21 11:28:26;;;;;;;10.50;9.50;;;26.40;99.90;;;;;;5033877;28;20881;-72
2023/06/21 11:31:09;;;;;;;10.70;9.70;;;26.50;99.90;;;;;;5033959;28;20785;-72
2023/06/21 11:33:49;;;;;;;9.20;8.30;;;26.50;99.90;;;;;;5035805;28;20813;-72
2023/06/21 11:36:21;;;;;;;11.63;10.43;;;26.60;99.90;;;;;;5033929;28;20542;-73
2023/06/21 11:38:58;;;;;;;11.47;10.37;;;26.60;99.90;;;;;;5034801;28;20463;-72
2023/06/21 11:41:59;;;;;;;10.40;9.30;;;26.70;99.90;;;;;;5034690;28;20423;-72
2023/06/21 11:44:29;;;;;;;10.67;9.63;;;26.60;99.90;;;;;;5033918;28;20446;-72
2023/06/21 11:47:05;;;;;;;11.17;10.07;;;26.60;99.90;;;;;;5034702;28;20420;-73
2023/06/21 11:49:34;;;;;;;10.97;9.83;;;26.60;99.90;;;;;;5034693;28;20467;-72
2023/06/21 11:52:04;;;;;;;10.40;9.40;;;26.60;99.90;;;;;;5034552;28;20469;-72
2023/06/21 11:54:32;;;;;;;9.03;8.13;;;26.60;99.90;;;;;;5034931;28;20480;-73
2023/06/21 11:57:05;;;;;;;9.60;8.70;;;26.60;99.90;;;;;;5034654;28;20458;-72
2023/06/21 11:59:34;;;;;;;10.63;9.27;;;26.60;99.90;;;;;;5035606;28;20489;-72
2023/06/21 12:02:13;;;;;;;11.37;10.27;;;26.60;99.90;;;;;;5033277;28;20883;-72
2023/06/21 12:04:42;;;;;;;10.60;9.60;;;26.60;99.90;;;;;;5035053;28;20458;-72
2023/06/21 12:07:11;;;;;;;10.20;8.57;;;26.60;99.90;;;;;;5033199;28;20804;-73
2023/06/21 12:09:40;;;;;;;8.37;7.40;;;26.60;99.90;;;;;;5034459;28;20525;-72
2023/06/21 12:12:11;;;;;;;10.87;7.80;;;26.70;99.90;;;;;;5034120;28;20439;-72
2023/06/21 12:14:39;;;;;;;9.87;8.37;;;26.80;99.90;;;;;;5034476;28;20465;-72
2023/06/21 12:17:07;;;;;;;8.87;7.87;;;26.90;99.90;;;;;;5034769;28;20426;-72
2023/06/21 12:19:35;;;;;;;10.47;9.47;;;27.00;99.90;;;;;;5034903;28;20470;-72
2023/06/21 12:22:04;;;;;;;8.63;7.73;;;27.00;99.90;;;;;;5033742;28;20514;-72
2023/06/21 12:24:33;;;;;;;8.87;7.97;;;27.00;99.90;;;;;;5035080;28;20443;-72
2023/06/21 12:27:02;;;;;;;9.27;8.27;;;27.00;99.90;;;;;;5035227;28;20443;-72
2023/06/21 12:29:32;;;;;;;8.63;7.40;;;27.00;99.90;;;;;;5034763;28;20521;-72
2023/06/21 12:32:00;;;;;;;8.53;7.40;;;27.00;99.90;;;;;;5034441;28;20442;-72
2023/06/21 12:34:28;;;;;;;8.40;7.53;;;27.00;99.90;;;;;;5034965;28;20878;-72
2023/06/21 12:36:58;;;;;;;8.30;6.93;;;26.90;99.90;;;;;;5036036;28;20807;-72
2023/06/21 12:39:27;;;;;;;8.63;7.13;;;26.90;99.90;;;;;;5038703;28;20466;-72
2023/06/21 12:41:55;;;;;;;8.57;6.60;;;26.90;99.90;;;;;;5039942;28;20461;-72
2023/06/21 12:44:26;;;;;;;6.63;5.93;;;26.90;99.90;;;;;;5039114;28;20537;-72
2023/06/21 12:46:57;;;;;;;6.80;5.93;;;26.90;99.90;;;;;;5037125;28;20419;-72
2023/06/21 12:49:26;;;;;;;7.33;5.93;;;26.90;99.70;;;;;;5037225;28;20505;-72